Time,TemperatureF,DewpointF,PressureIn,WindDirection,WindDirectionDegrees,WindSpeedMPH,WindSpeedGustMPH,Humidity,HourlyPrecipIn,Conditions,Clouds,dailyrainin,SoftwareType,DateUTC
2013-10-28 00:13:00,35.0,33.0,30.07,ESE,123,0.0,0.0,93,-99.99,,,-99.99,,2013-10-28 04:13:00,
2013-10-28 00:23:00,35.0,33.0,30.08,ESE,123,0.0,0.0,93,-99.99,,,-99.99,,2013-10-28 04:23:00,
2013-10-28 00:53:00,34.0,33.0,30.09,ESE,123,0.0,0.0,97,-99.99,,,-99.99,,2013-10-28 04:53:00,
2013-10-28 01:13:00,34.0,33.0,30.09,ESE,123,0.0,0.0,97,-99.99,,,-99.99,,2013-10-28 05:13:00,
2013-10-28 01:22:00,33.0,33.0,30.11,ESE,123,0.0,0.0,99,-99.99,,,-99.99,,2013-10-28 05:22:00,
2013-10-28 01:53:00,33.0,33.0,30.11,ESE,123,0.0,0.0,99,-99.99,,,-99.99,,2013-10-28 05:53:00,
2013-10-28 02:12:00,32.0,32.0,30.12,ESE,123,0.0,0.0,100,-99.99,,,-99.99,,2013-10-28 06:12:00,
2013-10-28 02:22:00,32.0,32.0,30.12,ESE,123,0.0,0.0,100,-99.99,,,-99.99,,2013-10-28 06:22:00,
2013-10-28 02:43:00,31.0,31.0,30.12,ESE,123,0.0,0.0,100,-99.99,,,-99.99,,2013-10-28 06:43:00,
2013-10-28 02:52:00,31.0,31.0,30.12,ESE,123,0.0,0.0,100,-99.99,,,-99.99,,2013-10-28 06:52:00,
2013-10-28 03:22:00,30.0,30.0,30.13,ESE,123,0.0,0.0,100,-99.99,,,-99.99,,2013-10-28 07:22:00,
2013-10-28 03:52:00,30.0,30.0,30.13,ESE,123,0.0,0.0,100,-99.99,,,-99.99,,2013-10-28 07:52:00,
2013-10-28 04:12:00,30.0,30.0,30.13,ESE,123,0.0,0.0,100,-99.99,,,-99.99,,2013-10-28 08:12:00,
2013-10-28 04:22:00,30.0,30.0,30.14,ESE,123,0.0,0.0,100,-99.99,,,-99.99,,2013-10-28 08:22:00,
2013-10-28 04:42:00,30.0,30.0,30.14,ESE,123,0.0,0.0,100,-99.99,,,-99.99,,2013-10-28 08:42:00,
2013-10-28 04:52:00,30.0,30.0,30.14,ESE,123,0.0,0.0,100,-99.99,,,-99.99,,2013-10-28 08:52:00,
2013-10-28 05:22:00,30.0,30.0,30.14,ESE,123,0.0,0.0,100,-99.99,,,-99.99,,2013-10-28 09:22:00,
2013-10-28 05:53:00,30.0,30.0,30.15,ESE,123,0.0,0.0,100,-99.99,,,-99.99,,2013-10-28 09:53:00,
2013-10-28 06:23:00,30.0,30.0,30.16,ESE,123,0.0,0.0,100,-99.99,,,-99.99,,2013-10-28 10:23:00,
2013-10-28 06:43:00,30.0,30.0,30.17,ESE,123,0.0,0.0,100,-99.99,,,-99.99,,2013-10-28 10:43:00,
2013-10-28 06:53:00,30.0,30.0,30.17,ESE,123,0.0,0.0,100,-99.99,,,-99.99,,2013-10-28 10:53:00,
2013-10-28 07:12:00,29.0,29.0,30.19,ESE,123,0.0,0.0,100,-99.99,,,-99.99,,2013-10-28 11:12:00,
2013-10-28 07:22:00,29.0,29.0,30.19,ESE,123,0.0,0.0,100,-99.99,,,-99.99,,2013-10-28 11:22:00,
2013-10-28 07:42:00,29.0,29.0,30.20,ESE,123,0.0,0.0,100,-99.99,,,-99.99,,2013-10-28 11:42:00,
2013-10-28 07:52:00,29.0,29.0,30.20,ESE,123,0.0,0.0,100,-99.99,,,-99.99,,2013-10-28 11:52:00,
2013-10-28 08:21:00,29.0,29.0,30.22,ESE,123,0.0,0.0,100,-99.99,,,-99.99,,2013-10-28 12:21:00,
2013-10-28 08:42:00,29.0,29.0,30.23,ESE,123,0.0,0.0,100,-99.99,,,-99.99,,2013-10-28 12:42:00,
2013-10-28 08:52:00,29.0,29.0,30.23,ESE,123,0.0,0.0,100,-99.99,,,-99.99,,2013-10-28 12:52:00,
2013-10-28 09:11:00,29.0,29.0,30.24,ESE,123,0.0,0.0,100,-99.99,,,-99.99,,2013-10-28 13:11:00,
2013-10-28 09:22:00,29.0,29.0,30.25,ESE,123,0.0,0.0,100,-99.99,,,-99.99,,2013-10-28 13:22:00,
2013-10-28 09:42:00,30.0,30.0,30.26,ESE,123,0.0,0.0,100,-99.99,,,-99.99,,2013-10-28 13:42:00,
2013-10-28 09:52:00,32.0,32.0,30.27,ESE,123,0.0,0.0,100,-99.99,,,-99.99,,2013-10-28 13:52:00,
2013-10-28 10:11:00,35.0,35.0,30.27,ESE,123,0.0,0.0,100,-99.99,,,-99.99,,2013-10-28 14:11:00,
2013-10-28 10:22:00,38.0,38.0,30.27,ESE,123,0.0,0.0,100,-99.99,,,-99.99,,2013-10-28 14:22:00,
2013-10-28 10:52:00,44.0,37.0,30.28,ESE,123,0.0,0.0,75,-99.99,,,-99.99,,2013-10-28 14:52:00,
2013-10-28 11:11:00,46.0,37.0,30.29,North,1,0.0,0.0,72,-99.99,,,-99.99,,2013-10-28 15:11:00,
2013-10-28 11:22:00,49.0,40.0,30.29,NE,40,1.0,5.0,72,-99.99,,,-99.99,,2013-10-28 15:22:00,
2013-10-28 11:43:00,50.0,39.0,30.29,North,10,0.0,5.0,66,-99.99,,,-99.99,,2013-10-28 15:43:00,
2013-10-28 11:53:00,51.0,40.0,30.29,ESE,106,0.0,0.0,66,-99.99,,,-99.99,,2013-10-28 15:53:00,
2013-10-28 12:23:00,53.0,41.0,30.29,ESE,104,0.0,0.0,63,-99.99,,,-99.99,,2013-10-28 16:23:00,
2013-10-28 12:43:00,54.0,42.0,30.29,East,96,0.0,3.0,63,-99.99,,,-99.99,,2013-10-28 16:43:00,
2013-10-28 12:53:00,55.0,42.0,30.29,ENE,72,0.0,0.0,62,-99.99,,,-99.99,,2013-10-28 16:53:00,
2013-10-28 13:12:00,55.0,42.0,30.29,NNW,339,0.0,0.0,62,-99.99,,,-99.99,,2013-10-28 17:12:00,
2013-10-28 13:22:00,55.0,42.0,30.29,East,99,0.0,1.0,62,-99.99,,,-99.99,,2013-10-28 17:22:00,
2013-10-28 13:52:00,57.0,44.0,30.29,SE,141,1.0,3.0,61,-99.99,,,-99.99,,2013-10-28 17:52:00,
2013-10-28 14:12:00,57.0,42.0,30.29,East,86,0.0,2.0,58,-99.99,,,-99.99,,2013-10-28 18:12:00,
2013-10-28 14:21:00,57.0,42.0,30.29,East,90,0.0,0.0,58,-99.99,,,-99.99,,2013-10-28 18:21:00,
2013-10-28 14:52:00,58.0,42.0,30.27,ESE,112,0.0,1.0,55,-99.99,,,-99.99,,2013-10-28 18:52:00,
2013-10-28 15:22:00,58.0,40.0,30.27,SSE,148,0.0,0.0,51,-99.99,,,-99.99,,2013-10-28 19:22:00,
2013-10-28 15:42:00,60.0,41.0,30.27,NW,313,0.0,0.0,50,-99.99,,,-99.99,,2013-10-28 19:42:00,
2013-10-28 15:52:00,59.0,41.0,30.27,NNW,328,0.0,0.0,51,-99.99,,,-99.99,,2013-10-28 19:52:00,
2013-10-28 16:11:00,59.0,41.0,30.27,NW,325,0.0,0.0,51,-99.99,,,-99.99,,2013-10-28 20:11:00,
2013-10-28 16:21:00,58.0,40.0,30.27,NE,40,0.0,0.0,51,-99.99,,,-99.99,,2013-10-28 20:21:00,
2013-10-28 16:52:00,57.0,39.0,30.28,North,359,0.0,0.0,51,-99.99,,,-99.99,,2013-10-28 20:52:00,
2013-10-28 17:21:00,57.0,39.0,30.28,NNW,336,0.0,0.0,51,-99.99,,,-99.99,,2013-10-28 21:21:00,
2013-10-28 17:43:00,57.0,39.0,30.28,North,349,0.0,0.0,51,-99.99,,,-99.99,,2013-10-28 21:43:00,
2013-10-28 17:54:00,57.0,39.0,30.28,North,349,0.0,0.0,51,-99.99,,,-99.99,,2013-10-28 21:54:00,
2013-10-28 18:23:00,55.0,37.0,30.29,NNE,17,0.0,0.0,51,-99.99,,,-99.99,,2013-10-28 22:23:00,
2013-10-28 18:53:00,53.0,40.0,30.29,NNE,17,0.0,0.0,62,-99.99,,,-99.99,,2013-10-28 22:53:00,
2013-10-28 19:22:00,49.0,40.0,30.31,NNE,17,0.0,0.0,71,-99.99,,,-99.99,,2013-10-28 23:22:00,
2013-10-28 19:42:00,48.0,40.0,30.31,NNE,17,0.0,0.0,74,-99.99,,,-99.99,,2013-10-28 23:42:00,
2013-10-28 19:52:00,46.0,38.0,30.32,NNE,17,0.0,0.0,74,-99.99,,,-99.99,,2013-10-28 23:52:00,
2013-10-28 20:22:00,43.0,35.0,30.32,NNE,17,0.0,0.0,74,-99.99,,,-99.99,,2013-10-29 00:22:00,
2013-10-28 20:42:00,43.0,35.0,30.34,NNE,17,0.0,0.0,74,-99.99,,,-99.99,,2013-10-29 00:42:00,
2013-10-28 20:52:00,42.0,34.0,30.34,NNE,17,0.0,0.0,74,-99.99,,,-99.99,,2013-10-29 00:52:00,
2013-10-28 21:11:00,42.0,40.0,30.34,NNE,17,0.0,0.0,94,-99.99,,,-99.99,,2013-10-29 01:11:00,
2013-10-28 21:21:00,42.0,41.0,30.35,NW,318,0.0,0.0,95,-99.99,,,-99.99,,2013-10-29 01:21:00,
2013-10-28 21:42:00,44.0,43.0,30.34,NNW,340,0.0,0.0,95,-99.99,,,-99.99,,2013-10-29 01:42:00,
2013-10-28 21:53:00,44.0,40.0,30.34,NE,49,0.0,0.0,86,-99.99,,,-99.99,,2013-10-29 01:53:00,
2013-10-28 22:21:00,44.0,40.0,30.36,North,360,1.0,1.0,86,-99.99,,,-99.99,,2013-10-29 02:21:00,
2013-10-28 22:44:00,43.0,39.0,30.36,East,86,0.0,0.0,86,-99.99,,,-99.99,,2013-10-29 02:44:00,
2013-10-28 22:54:00,42.0,38.0,30.36,ESE,112,0.0,0.0,86,-99.99,,,-99.99,,2013-10-29 02:54:00,
2013-10-28 23:14:00,42.0,38.0,30.37,ENE,59,0.0,0.0,86,-99.99,,,-99.99,,2013-10-29 03:14:00,
2013-10-28 23:27:00,42.0,38.0,30.37,NE,52,0.0,0.0,86,-99.99,,,-99.99,,2013-10-29 03:27:00,
2013-10-28 23:40:00,-999.0,-99.9,30.36,NE,56,0.0,0.0,86,-99.99,,,-99.99,,2013-10-29 03:40:00,
2013-10-28 23:47:00,41.0,37.0,30.36,NE,56,0.0,0.0,86,-99.99,,,-99.99,,2013-10-29 03:47:00,
2013-10-28 23:55:00,41.0,38.0,30.37,ENE,59,0.0,0.0,90,-99.99,,,-99.99,,2013-10-29 03:55:00,